createdAt,value
2024-02-02T00:02:16.122Z,98917.88
2024-02-02T00:04:43.996Z,98913.75
2024-02-02T00:07:11.568Z,98915.56
2024-02-02T00:09:39.300Z,98913.75
2024-02-02T00:12:12.173Z,98905.00
2024-02-02T00:14:40.881Z,98894.47
2024-02-02T00:17:08.517Z,98890.63
2024-02-02T00:19:36.259Z,98890.16
2024-02-02T00:22:03.823Z,98898.22
2024-02-02T00:24:31.618Z,98901.69
2024-02-02T00:26:59.227Z,98895.09
2024-02-02T00:29:26.764Z,98901.69
2024-02-02T00:31:54.398Z,98904.13
2024-02-02T00:34:22.076Z,98902.94
2024-02-02T00:36:49.776Z,98902.09
2024-02-02T00:39:17.441Z,98899.47
2024-02-02T00:41:45.346Z,98912.66
2024-02-02T00:44:12.988Z,98899.16
2024-02-02T00:46:40.552Z,98899.78
2024-02-02T00:49:08.204Z,98895.84
2024-02-02T00:51:35.783Z,98900.66
2024-02-02T00:54:03.476Z,98904.75
2024-02-02T00:56:31.087Z,98911.16
2024-02-02T00:58:58.658Z,98910.94
2024-02-02T01:01:26.235Z,98914.91
2024-02-02T01:03:53.973Z,98912.59
2024-02-02T01:06:21.543Z,98899.41
2024-02-02T01:08:49.273Z,98906.97
2024-02-02T01:11:17.340Z,98911.94
2024-02-02T01:13:45.241Z,98913.38
2024-02-02T01:16:12.892Z,98901.53
2024-02-02T01:18:41.040Z,98900.72
2024-02-02T01:21:09.343Z,98894.25
2024-02-02T01:23:36.926Z,98896.66
2024-02-02T01:26:05.478Z,98898.19
2024-02-02T01:28:33.201Z,98879.22
2024-02-02T01:31:00.777Z,98883.13
2024-02-02T01:33:28.855Z,98891.84
2024-02-02T01:35:56.518Z,98896.81
2024-02-02T01:38:24.333Z,98894.16
2024-02-02T01:40:51.851Z,98887.19
2024-02-02T01:43:19.679Z,98890.00
2024-02-02T01:45:47.222Z,98890.81
2024-02-02T01:48:15.038Z,98891.50
2024-02-02T01:50:42.934Z,98892.31
2024-02-02T01:53:10.984Z,98897.41
2024-02-02T01:55:38.716Z,98898.84
2024-02-02T01:58:06.917Z,98896.38
2024-02-02T02:00:34.767Z,98887.78
2024-02-02T02:03:03.136Z,98891.72
2024-02-02T02:05:30.724Z,98892.53
2024-02-02T02:07:58.399Z,98894.19
2024-02-02T02:10:26.558Z,98895.19
2024-02-02T02:12:54.369Z,98888.63
2024-02-02T02:15:22.199Z,98895.69
2024-02-02T02:17:52.467Z,98889.78
2024-02-02T02:20:23.866Z,98887.97
2024-02-02T02:22:51.533Z,98888.63
2024-02-02T02:25:19.108Z,98903.16
2024-02-02T02:27:46.980Z,98901.66
2024-02-02T02:30:15.075Z,98900.66
2024-02-02T02:32:42.821Z,98893.59
2024-02-02T02:35:10.456Z,98894.94
2024-02-02T02:37:38.239Z,98900.22
2024-02-02T02:40:07.094Z,98904.50
2024-02-02T02:42:34.806Z,98902.69
2024-02-02T02:45:02.631Z,98894.13
2024-02-02T02:47:30.388Z,98886.06
2024-02-02T02:49:58.023Z,98897.59
2024-02-02T02:52:25.617Z,98889.38
2024-02-02T02:54:53.260Z,98895.25
2024-02-02T02:57:20.947Z,98892.44
2024-02-02T02:59:48.553Z,98892.16
2024-02-02T03:02:16.263Z,98893.97
2024-02-02T03:04:44.163Z,98894.13
2024-02-02T03:07:12.099Z,98892.97
2024-02-02T03:09:39.804Z,98884.56
2024-02-02T03:12:07.599Z,98889.00
2024-02-02T03:14:35.272Z,98889.00
2024-02-02T03:17:03.564Z,98895.31
2024-02-02T03:19:31.597Z,98904.88
2024-02-02T03:21:59.358Z,98907.34
2024-02-02T03:24:28.534Z,98903.56
2024-02-02T03:26:56.352Z,98901.63
2024-02-02T03:29:23.886Z,98890.09
2024-02-02T03:31:51.581Z,98883.88
2024-02-02T03:34:19.344Z,98886.13
2024-02-02T03:36:47.217Z,98883.56
2024-02-02T03:39:14.792Z,98892.59
2024-02-02T03:41:42.405Z,98896.50
2024-02-02T03:44:10.027Z,98893.72
2024-02-02T03:46:37.637Z,98900.50
2024-02-02T03:49:05.339Z,98909.66
2024-02-02T03:51:33.177Z,98893.88
2024-02-02T03:54:00.953Z,98902.81
2024-02-02T03:56:28.680Z,98902.31
2024-02-02T03:58:56.150Z,98906.72
2024-02-02T04:01:24.013Z,98908.09
2024-02-02T04:03:51.868Z,98897.03
2024-02-02T04:06:20.328Z,98896.19
2024-02-02T04:08:47.953Z,98896.81
2024-02-02T04:11:15.525Z,98906.06
2024-02-02T04:13:43.600Z,98906.22
2024-02-02T04:16:11.388Z,98912.84
2024-02-02T04:18:39.112Z,98916.09
2024-02-02T04:21:06.976Z,98906.69
2024-02-02T04:23:34.485Z,98913.09
2024-02-02T04:26:02.081Z,98921.59
2024-02-02T04:28:29.699Z,98915.34
2024-02-02T04:30:57.728Z,98914.94
2024-02-02T04:33:25.520Z,98920.47
2024-02-02T04:35:56.250Z,98921.59
2024-02-02T04:38:23.887Z,98927.97
2024-02-02T04:40:51.472Z,98921.81
2024-02-02T04:43:19.167Z,98927.59
2024-02-02T04:45:47.831Z,98934.53
2024-02-02T04:48:15.795Z,98925.34
2024-02-02T04:50:43.442Z,98935.66
2024-02-02T04:53:11.316Z,98938.00
2024-02-02T04:55:38.794Z,98936.31
2024-02-02T04:58:06.787Z,98938.28
2024-02-02T05:00:34.639Z,98941.84
2024-02-02T05:03:02.789Z,98942.78
2024-02-02T05:05:30.769Z,98936.69
2024-02-02T05:07:58.375Z,98935.13
2024-02-02T05:10:26.020Z,98935.66
2024-02-02T05:12:53.571Z,98938.41
2024-02-02T05:15:21.159Z,98927.88
2024-02-02T05:17:48.970Z,98929.47
2024-02-02T05:20:16.663Z,98940.00
2024-02-02T05:22:44.370Z,98941.28
2024-02-02T05:25:14.992Z,98947.69
2024-02-02T05:27:43.167Z,98945.19
2024-02-02T05:30:11.110Z,98942.41
2024-02-02T05:32:38.747Z,98943.22
2024-02-02T05:35:06.720Z,98938.78
2024-02-02T05:37:34.913Z,98941.13
2024-02-02T05:40:02.579Z,98943.63
2024-02-02T05:42:30.356Z,98936.97
2024-02-02T05:44:57.949Z,98928.13
2024-02-02T05:47:25.628Z,98930.31
2024-02-02T05:49:53.245Z,98926.72
2024-02-02T05:52:20.896Z,98927.16
2024-02-02T05:54:48.418Z,98930.47
2024-02-02T05:57:16.157Z,98920.25
2024-02-02T05:59:43.768Z,98910.84
2024-02-02T06:02:11.409Z,98906.38
2024-02-02T06:04:39.105Z,98915.41
2024-02-02T06:07:06.851Z,98913.59
2024-02-02T06:09:34.502Z,98913.06
2024-02-02T06:12:02.355Z,98914.59
2024-02-02T06:14:32.051Z,98913.06
2024-02-02T06:16:59.636Z,98912.03
2024-02-02T06:19:27.245Z,98912.03
2024-02-02T06:21:54.831Z,98907.88
2024-02-02T06:24:26.080Z,98910.50
2024-02-02T06:26:53.863Z,98907.06
2024-02-02T06:29:21.433Z,98907.06
2024-02-02T06:31:49.154Z,98912.31
2024-02-02T06:34:16.859Z,98903.59
2024-02-02T06:36:44.679Z,98902.47
2024-02-02T06:39:12.377Z,98900.69
2024-02-02T06:41:40.008Z,98899.00
2024-02-02T06:44:07.543Z,98900.97
2024-02-02T06:46:35.106Z,98903.31
2024-02-02T06:49:02.985Z,98902.31
2024-02-02T06:51:30.692Z,98907.16
2024-02-02T06:53:58.306Z,98905.28
2024-02-02T06:56:43.188Z,98908.94
2024-02-02T06:59:11.592Z,98901.13
2024-02-02T07:01:39.988Z,98894.97
2024-02-02T07:04:13.241Z,98896.16
2024-02-02T07:06:41.269Z,98901.03
2024-02-02T07:09:21.094Z,98894.16
2024-02-02T07:12:06.416Z,98900.50
2024-02-02T07:14:43.664Z,98899.88
2024-02-02T07:17:34.358Z,98901.81
2024-02-02T07:20:05.638Z,98899.53
2024-02-02T07:22:40.312Z,98892.47
2024-02-02T07:25:12.701Z,98901.06
2024-02-02T07:27:58.127Z,98905.72
2024-02-02T07:31:34.388Z,98892.84
2024-02-02T07:34:29.076Z,98888.44
2024-02-02T07:36:56.906Z,98888.13
2024-02-02T07:39:31.518Z,98889.47
2024-02-02T07:42:02.010Z,98891.16
2024-02-02T07:44:29.766Z,98894.53
2024-02-02T07:46:57.385Z,98893.53
2024-02-02T07:49:25.099Z,98895.84
2024-02-02T07:51:52.696Z,98894.06
2024-02-02T07:54:20.349Z,98894.63
2024-02-02T07:56:47.891Z,98892.41
2024-02-02T07:59:15.508Z,98907.09
2024-02-02T08:01:43.134Z,98892.44
2024-02-02T08:08:17.174Z,98881.53
2024-02-02T08:10:46.977Z,98888.47
2024-02-02T08:13:15.785Z,98884.31
2024-02-02T08:15:43.501Z,98882.84
2024-02-02T08:18:12.223Z,98884.44
2024-02-02T08:20:40.082Z,98891.00
2024-02-02T08:23:07.901Z,98890.91
2024-02-02T08:25:35.531Z,98870.84
2024-02-02T08:28:03.607Z,98863.28
2024-02-02T08:30:32.048Z,98852.03
2024-02-02T08:32:59.825Z,98852.28
2024-02-02T08:35:29.704Z,98857.59
2024-02-02T08:37:59.528Z,98858.50
2024-02-02T08:40:46.758Z,98836.44
2024-02-02T08:43:19.278Z,98845.16
2024-02-02T08:45:58.888Z,98841.28
2024-02-02T08:48:27.447Z,98847.00
2024-02-02T08:50:58.270Z,98833.00
2024-02-02T08:53:27.600Z,98822.94
2024-02-02T08:56:01.032Z,98830.34
2024-02-02T08:58:36.277Z,98818.03
2024-02-02T09:01:05.284Z,98808.16
2024-02-02T09:03:46.466Z,98813.66
2024-02-02T09:06:20.824Z,98822.56
2024-02-02T09:08:48.247Z,98810.78
2024-02-02T09:11:25.312Z,98804.16
2024-02-02T09:14:08.561Z,98797.56
2024-02-02T09:16:47.792Z,98799.75
2024-02-02T09:19:47.172Z,98798.06
2024-02-02T09:22:19.498Z,98792.72
2024-02-02T09:24:49.266Z,98794.56
2024-02-02T09:27:33.840Z,98801.88
2024-02-02T09:30:06.126Z,98795.22
2024-02-02T09:32:34.192Z,98794.66
2024-02-02T09:35:24.367Z,98795.63
2024-02-02T09:37:52.553Z,98790.28
2024-02-02T09:40:57.707Z,98784.06
2024-02-02T09:43:57.883Z,98785.53
2024-02-02T09:46:52.178Z,98783.88
2024-02-02T09:49:49.174Z,98775.25
2024-02-02T09:52:42.783Z,98774.97
2024-02-02T09:55:19.107Z,98778.44
2024-02-02T09:57:56.250Z,98788.69
2024-02-02T10:00:42.517Z,98771.72
2024-02-02T10:03:19.508Z,98767.31
2024-02-02T10:06:01.813Z,98758.22
2024-02-02T10:08:48.079Z,98753.53
2024-02-02T10:11:53.705Z,98763.69
2024-02-02T10:14:33.366Z,98770.13
2024-02-02T10:17:38.469Z,98754.72
2024-02-02T10:20:12.228Z,98755.91
2024-02-02T10:22:40.285Z,98759.63
2024-02-02T10:25:25.766Z,98752.66
2024-02-02T10:28:17.998Z,98760.91
2024-02-02T10:31:06.807Z,98757.81
2024-02-02T10:33:40.003Z,98756.16
2024-02-02T10:36:13.672Z,98753.78
2024-02-02T10:38:56.760Z,98765.53
2024-02-02T10:41:30.261Z,98746.75
2024-02-02T10:44:25.833Z,98756.97
2024-02-02T10:47:21.695Z,98763.22
2024-02-02T10:49:57.039Z,98758.22
2024-02-02T10:52:51.097Z,98744.44
2024-02-02T10:56:06.432Z,98729.94
2024-02-02T10:59:28.390Z,98696.44
2024-02-02T11:02:14.382Z,98692.13
2024-02-02T11:05:16.363Z,98690.94
2024-02-02T11:07:51.665Z,98676.78
2024-02-02T11:10:25.730Z,98678.13
2024-02-02T11:13:05.258Z,98680.59
2024-02-02T11:15:57.497Z,98676.38
2024-02-02T11:18:51.582Z,98682.34
2024-02-02T11:21:40.224Z,98692.28
2024-02-02T11:24:26.615Z,98693.75
2024-02-02T11:27:18.855Z,98685.06
2024-02-02T11:30:01.515Z,98676.25
2024-02-02T11:33:05.012Z,98676.75
2024-02-02T11:36:04.853Z,98642.56
2024-02-02T11:38:52.173Z,98647.16
2024-02-02T11:41:21.326Z,98631.50
2024-02-02T11:43:49.648Z,98651.41
2024-02-02T11:46:23.189Z,98632.06
2024-02-02T11:48:54.321Z,98606.50
2024-02-02T11:51:23.068Z,98610.44
2024-02-02T11:53:59.305Z,98598.69
2024-02-02T11:56:56.857Z,98589.19
2024-02-02T11:59:38.137Z,98582.91
2024-02-02T12:02:17.605Z,98582.19
2024-02-02T12:04:46.910Z,98586.06
2024-02-02T12:07:21.183Z,98585.19
2024-02-02T12:10:06.848Z,98577.25
2024-02-02T12:12:44.648Z,98576.59
2024-02-02T12:15:12.999Z,98570.56
2024-02-02T12:17:40.836Z,98571.69
2024-02-02T12:20:12.094Z,98561.31
2024-02-02T12:22:41.274Z,98567.00
2024-02-02T12:25:11.361Z,98562.34
2024-02-02T12:27:39.099Z,98560.13
2024-02-02T12:30:10.856Z,98562.25
2024-02-02T12:32:42.001Z,98552.81
2024-02-02T12:35:09.705Z,98543.47
2024-02-02T12:37:52.129Z,98532.94
2024-02-02T12:40:20.930Z,98538.97
2024-02-02T12:42:51.778Z,98541.22
2024-02-02T12:45:20.041Z,98542.25
2024-02-02T12:47:48.487Z,98539.66
2024-02-02T12:50:17.295Z,98536.59
2024-02-02T12:52:46.691Z,98531.97
2024-02-02T12:55:14.774Z,98530.31
2024-02-02T12:57:43.274Z,98532.03
2024-02-02T13:00:15.784Z,98527.53
2024-02-02T13:02:45.085Z,98525.16
2024-02-02T13:05:15.892Z,98524.31
2024-02-02T13:07:46.331Z,98527.16
2024-02-02T13:10:13.908Z,98518.00
2024-02-02T13:12:51.015Z,98508.84
2024-02-02T13:15:23.083Z,98500.63
2024-02-02T13:18:03.818Z,98502.66
2024-02-02T13:20:35.973Z,98506.06
2024-02-02T13:23:14.447Z,98495.06
2024-02-02T13:25:42.085Z,98493.63
2024-02-02T13:28:19.679Z,98492.34
2024-02-02T13:31:20.598Z,98485.16
2024-02-02T13:33:56.504Z,98489.22
2024-02-02T13:36:24.699Z,98479.75
2024-02-02T13:39:00.495Z,98476.41
2024-02-02T13:41:29.336Z,98474.47
2024-02-02T13:43:57.763Z,98463.03
2024-02-02T13:46:27.091Z,98453.31
2024-02-02T13:48:59.672Z,98443.78
2024-02-02T13:51:29.365Z,98439.13
2024-02-02T13:53:58.231Z,98440.94
2024-02-02T13:56:28.232Z,98426.84
2024-02-02T13:58:56.271Z,98425.09
2024-02-02T14:01:28.866Z,98420.03
2024-02-02T14:03:57.091Z,98416.56
2024-02-02T14:06:28.033Z,98413.34
2024-02-02T14:08:56.162Z,98414.34
2024-02-02T14:11:25.819Z,98412.50
2024-02-02T14:13:55.166Z,98404.94
2024-02-02T14:16:24.795Z,98404.94
2024-02-02T14:19:03.406Z,98403.50
2024-02-02T14:21:35.480Z,98405.53
2024-02-02T14:24:13.607Z,98395.69
2024-02-02T14:26:51.754Z,98389.34
2024-02-02T14:29:20.436Z,98378.97
2024-02-02T14:31:49.076Z,98363.88
2024-02-02T14:34:16.910Z,98371.19
2024-02-02T14:36:44.985Z,98372.25
2024-02-02T14:39:26.232Z,98370.81
2024-02-02T14:41:55.515Z,98371.00
2024-02-02T14:44:24.226Z,98357.75
2024-02-02T14:46:52.074Z,98359.81
2024-02-02T14:49:23.341Z,98346.72
2024-02-02T14:51:51.839Z,98339.16
2024-02-02T14:54:19.736Z,98342.19
2024-02-02T14:56:47.848Z,98336.50
2024-02-02T14:59:21.775Z,98340.97
2024-02-02T15:01:49.662Z,98341.59
2024-02-02T15:04:17.568Z,98338.50
2024-02-02T15:06:45.610Z,98347.78
2024-02-02T15:09:17.539Z,98347.19
2024-02-02T15:11:46.043Z,98342.38
2024-02-02T15:14:14.813Z,98349.28
2024-02-02T15:16:42.479Z,98348.69
2024-02-02T15:19:10.362Z,98334.63
2024-02-02T15:21:38.165Z,98332.78
2024-02-02T15:24:06.191Z,98325.31
2024-02-02T15:26:40.132Z,98329.38
2024-02-02T15:29:09.331Z,98330.34
2024-02-02T15:31:37.892Z,98328.09
2024-02-02T15:34:07.948Z,98321.16
2024-02-02T15:36:37.013Z,98319.72
2024-02-02T15:39:19.162Z,98302.03
2024-02-02T15:41:54.615Z,98300.00
2024-02-02T15:44:22.507Z,98291.88
2024-02-02T15:46:50.228Z,98287.38
2024-02-02T15:49:17.924Z,98279.81
2024-02-02T15:51:45.666Z,98279.81
2024-02-02T15:54:13.277Z,98289.00
2024-02-02T15:56:40.905Z,98283.31
2024-02-02T15:59:08.794Z,98282.31
2024-02-02T16:01:37.260Z,98273.13
2024-02-02T16:04:05.076Z,98267.78
2024-02-02T16:06:32.944Z,98273.50
2024-02-02T16:09:00.609Z,98264.06
2024-02-02T16:11:28.314Z,98253.38
2024-02-02T16:13:55.837Z,98252.09
2024-02-02T16:16:23.406Z,98246.38
2024-02-02T16:18:51.246Z,98236.56
2024-02-02T16:21:19.318Z,98244.72
2024-02-02T16:23:46.972Z,98245.47
2024-02-02T16:26:14.630Z,98245.47
2024-02-02T16:28:42.136Z,98236.22
2024-02-02T16:31:10.045Z,98240.06
2024-02-02T16:33:37.865Z,98228.50
2024-02-02T16:36:06.201Z,98223.66
2024-02-02T16:38:35.757Z,98228.59
2024-02-02T16:41:04.063Z,98227.16
2024-02-02T16:43:31.879Z,98227.41
2024-02-02T16:45:59.491Z,98231.25
2024-02-02T16:48:27.164Z,98231.50
2024-02-02T16:50:56.358Z,98237.44
2024-02-02T16:53:24.106Z,98224.19
2024-02-02T16:55:51.863Z,98238.22
2024-02-02T16:58:19.362Z,98223.91
2024-02-02T17:00:47.042Z,98229.63
2024-02-02T17:03:14.841Z,98238.59
2024-02-02T17:05:42.538Z,98224.19
2024-02-02T17:08:10.457Z,98236.28
2024-02-02T17:10:38.110Z,98233.81
2024-02-02T17:13:05.548Z,98230.50
2024-02-02T17:15:35.064Z,98226.44
2024-02-02T17:18:03.006Z,98216.88
2024-02-02T17:20:30.678Z,98219.75
2024-02-02T17:22:58.213Z,98205.06
2024-02-02T17:25:25.806Z,98214.50
2024-02-02T17:27:53.464Z,98208.00
2024-02-02T17:30:23.199Z,98209.88
2024-02-02T17:32:51.180Z,98193.75
2024-02-02T17:35:18.840Z,98189.84
2024-02-02T17:37:46.461Z,98173.16
2024-02-02T17:40:17.003Z,98177.28
2024-02-02T17:42:45.153Z,98182.41
2024-02-02T17:45:12.799Z,98189.94
2024-02-02T17:47:41.298Z,98177.91
2024-02-02T17:50:09.825Z,98184.41
2024-02-02T17:52:37.584Z,98173.81
2024-02-02T17:55:06.302Z,98185.06
2024-02-02T17:57:34.470Z,98181.38
2024-02-02T18:00:02.185Z,98177.75
2024-02-02T18:02:39.429Z,98191.59
2024-02-02T18:05:07.220Z,98189.56
2024-02-02T18:07:44.405Z,98183.84
2024-02-02T18:10:16.139Z,98206.66
2024-02-02T18:12:44.598Z,98196.50
2024-02-02T18:15:12.304Z,98207.94
2024-02-02T18:17:40.140Z,98205.06
2024-02-02T18:20:08.784Z,98205.47
2024-02-02T18:22:36.445Z,98198.91
2024-02-02T18:25:04.951Z,98213.44
2024-02-02T18:27:32.465Z,98219.13
2024-02-02T18:30:00.031Z,98208.31
2024-02-02T18:32:27.604Z,98211.56
2024-02-02T18:34:55.310Z,98220.72
2024-02-02T18:37:22.867Z,98213.16
2024-02-02T18:39:50.492Z,98209.47
2024-02-02T18:42:18.101Z,98220.72
2024-02-02T18:44:45.909Z,98220.72
2024-02-02T18:47:20.043Z,98223.34
2024-02-02T18:49:50.883Z,98218.19
2024-02-02T18:52:18.562Z,98221.03
2024-02-02T18:54:46.139Z,98214.28
2024-02-02T18:57:13.843Z,98222.03
2024-02-02T18:59:41.396Z,98225.47
2024-02-02T19:02:09.718Z,98228.94
2024-02-02T19:04:38.163Z,98210.59
2024-02-02T19:07:06.275Z,98218.16
2024-02-02T19:09:34.146Z,98205.53
2024-02-02T19:12:01.895Z,98205.94
2024-02-02T19:14:29.615Z,98198.59
2024-02-02T19:16:57.194Z,98210.28
2024-02-02T19:19:24.810Z,98211.94
2024-02-02T19:21:52.865Z,98202.41
2024-02-02T19:24:20.492Z,98205.47
2024-02-02T19:26:49.456Z,98210.53
2024-02-02T19:29:17.595Z,98213.84
2024-02-02T19:31:45.099Z,98203.03
2024-02-02T19:34:12.838Z,98210.59
2024-02-02T19:36:40.463Z,98208.31
2024-02-02T19:39:11.835Z,98214.47
2024-02-02T19:41:39.419Z,98207.72
2024-02-02T19:44:07.022Z,98212.78
2024-02-02T19:46:35.266Z,98206.84
2024-02-02T19:49:03.662Z,98214.88
2024-02-02T19:51:32.047Z,98209.78
2024-02-02T19:53:59.758Z,98210.25
2024-02-02T19:56:27.477Z,98207.63
2024-02-02T19:58:55.549Z,98206.44
2024-02-02T20:01:26.269Z,98214.78
2024-02-02T20:03:54.542Z,98216.81
2024-02-02T20:06:22.498Z,98200.28
2024-02-02T20:08:51.500Z,98206.44
2024-02-02T20:11:21.105Z,98208.91
2024-02-02T20:13:49.383Z,98213.59
2024-02-02T20:16:19.172Z,98209.75
2024-02-02T20:18:48.018Z,98226.69
2024-02-02T20:21:20.321Z,98214.66
2024-02-02T20:23:50.671Z,98213.22
2024-02-02T20:26:20.421Z,98225.50
2024-02-02T20:28:53.033Z,98222.22
2024-02-02T20:31:21.800Z,98203.63
2024-02-02T20:33:53.036Z,98220.59
2024-02-02T20:36:21.701Z,98224.84
2024-02-02T20:38:50.033Z,98212.00
2024-02-02T20:41:25.637Z,98231.22
2024-02-02T20:43:58.831Z,98208.31
2024-02-02T20:46:26.772Z,98219.78
2024-02-02T20:48:54.576Z,98228.94
2024-02-02T20:51:22.378Z,98246.09
2024-02-02T20:53:50.128Z,98251.16
2024-02-02T20:56:17.789Z,98255.91
2024-02-02T20:58:45.416Z,98262.59
2024-02-02T21:01:13.116Z,98254.22
2024-02-02T21:03:40.811Z,98251.00
2024-02-02T21:06:08.759Z,98263.44
2024-02-02T21:08:36.445Z,98258.72
2024-02-02T21:11:04.529Z,98266.50
2024-02-02T21:13:32.047Z,98268.53
2024-02-02T21:16:02.307Z,98275.66
2024-02-02T21:18:30.181Z,98282.81
2024-02-02T21:20:58.114Z,98286.28
2024-02-02T21:23:25.832Z,98280.56
2024-02-02T21:25:56.154Z,98272.59
2024-02-02T21:28:23.837Z,98284.41
2024-02-02T21:30:58.453Z,98279.69
2024-02-02T21:33:27.704Z,98280.94
2024-02-02T21:35:55.713Z,98277.44
2024-02-02T21:38:23.351Z,98283.75
2024-02-02T21:40:50.898Z,98277.22
2024-02-02T21:43:18.481Z,98274.97
2024-02-02T21:45:46.288Z,98273.91
2024-02-02T21:48:14.258Z,98263.50
2024-02-02T21:50:43.089Z,98269.22
2024-02-02T21:53:14.684Z,98273.09
2024-02-02T21:55:42.360Z,98274.91
2024-02-02T21:58:10.248Z,98276.97
2024-02-02T22:00:37.946Z,98285.91
2024-02-02T22:03:05.793Z,98278.56
2024-02-02T22:05:33.620Z,98290.41
2024-02-02T22:08:01.117Z,98292.84
2024-02-02T22:10:28.954Z,98286.66
2024-02-02T22:12:57.087Z,98297.66
2024-02-02T22:15:25.250Z,98306.88
2024-02-02T22:17:53.342Z,98311.16
2024-02-02T22:20:20.996Z,98298.94
2024-02-02T22:22:50.549Z,98302.00
2024-02-02T22:25:18.374Z,98301.63
2024-02-02T22:27:46.046Z,98289.91
2024-02-02T22:30:14.579Z,98301.09
2024-02-02T22:32:42.331Z,98300.53
2024-02-02T22:35:10.048Z,98289.69
2024-02-02T22:37:39.050Z,98281.94
2024-02-02T22:40:10.106Z,98269.53
2024-02-02T22:42:37.768Z,98273.59
2024-02-02T22:45:05.898Z,98274.38
2024-02-02T22:47:33.578Z,98268.00
2024-02-02T22:50:01.145Z,98272.28
2024-02-02T22:52:28.823Z,98262.47
2024-02-02T22:54:56.344Z,98263.94
2024-02-02T22:57:24.217Z,98259.44
2024-02-02T22:59:57.093Z,98258.00
2024-02-02T23:02:28.954Z,98260.47
2024-02-02T23:04:56.505Z,98260.22
2024-02-02T23:07:24.214Z,98262.88
2024-02-02T23:09:51.827Z,98254.31
2024-02-02T23:12:20.080Z,98259.63
2024-02-02T23:14:47.746Z,98260.03
2024-02-02T23:17:15.439Z,98262.84
2024-02-02T23:19:45.193Z,98261.81
2024-02-02T23:22:13.056Z,98251.44
2024-02-02T23:24:40.664Z,98253.69
2024-02-02T23:27:08.533Z,98254.91
2024-02-02T23:29:36.156Z,98252.25
2024-02-02T23:32:04.550Z,98268.41
2024-02-02T23:34:32.306Z,98263.91
2024-02-02T23:37:00.069Z,98261.44
2024-02-02T23:39:28.053Z,98264.16
2024-02-02T23:41:55.875Z,98271.25
2024-02-02T23:44:25.088Z,98274.94
2024-02-02T23:46:52.692Z,98267.38
2024-02-02T23:49:20.272Z,98281.25
2024-02-02T23:51:47.863Z,98267.19
2024-02-02T23:54:15.856Z,98258.19
2024-02-02T23:56:43.493Z,98259.25
2024-02-02T23:59:11.041Z,98263.13
